Terminal Aerodrome Forecast
Issued by NWS

Home | Current Version | Previous Version | Text Only | Print | Product List | Glossary On
Versions: 1 2 3 4 5 6 7 8 9 10 11 12 13 14 15
000
FTUS42 KMLB 230240 AAA
TAFTIX
TAF AMD
KTIX 230240Z 2303/2324 12010KT P6SM VCSH SCT015 BKN030
     FM230400 12008KT P6SM VCSH BKN015 BKN030
     FM231400 17010KT P6SM VCSH SCT025 BKN070
      AMD NOT SKED 2303/2311=

USA.gov is the U.S. government's official web portal to all federal, state and local government web resources and services.